sensor_id;sensor_type;location;lat;lon;timestamp;temperature;humidity
12815;DHT22;6472;52.328;13.070;2024-02-16T00:00:13;7.20;99.90
12815;DHT22;6472;52.328;13.070;2024-02-16T00:02:43;7.10;99.90
12815;DHT22;6472;52.328;13.070;2024-02-16T00:05:19;7.10;99.90
12815;DHT22;6472;52.328;13.070;2024-02-16T00:08:01;7.10;99.90
12815;DHT22;6472;52.328;13.070;2024-02-16T00:10:30;7.00;99.90
12815;DHT22;6472;52.328;13.070;2024-02-16T00:12:58;7.00;99.90
12815;DHT22;6472;52.328;13.070;2024-02-16T00:15:26;7.00;99.90
12815;DHT22;6472;52.328;13.070;2024-02-16T00:17:54;6.90;99.90
12815;DHT22;6472;52.328;13.070;2024-02-16T00:20:24;6.90;99.90
12815;DHT22;6472;52.328;13.070;2024-02-16T00:22:52;6.90;99.90
12815;DHT22;6472;52.328;13.070;2024-02-16T00:25:20;6.80;99.90
12815;DHT22;6472;52.328;13.070;2024-02-16T00:27:48;6.90;99.90
12815;DHT22;6472;52.328;13.070;2024-02-16T00:30:17;6.80;99.90
12815;DHT22;6472;52.328;13.070;2024-02-16T00:32:46;6.80;99.90
12815;DHT22;6472;52.328;13.070;2024-02-16T00:35:15;6.80;99.90
12815;DHT22;6472;52.328;13.070;2024-02-16T00:37:46;6.80;99.90
12815;DHT22;6472;52.328;13.070;2024-02-16T00:40:14;6.70;99.90
12815;DHT22;6472;52.328;13.070;2024-02-16T00:42:42;6.70;99.90
12815;DHT22;6472;52.328;13.070;2024-02-16T00:45:10;6.70;99.90
12815;DHT22;6472;52.328;13.070;2024-02-16T00:47:38;6.70;99.90
12815;DHT22;6472;52.328;13.070;2024-02-16T00:50:08;6.60;99.90
12815;DHT22;6472;52.328;13.070;2024-02-16T00:52:37;6.60;99.90
12815;DHT22;6472;52.328;13.070;2024-02-16T00:55:08;6.60;99.90
12815;DHT22;6472;52.328;13.070;2024-02-16T00:57:37;6.60;99.90
12815;DHT22;6472;52.328;13.070;2024-02-16T01:00:06;6.50;99.90
12815;DHT22;6472;52.328;13.070;2024-02-16T01:02:36;6.50;99.90
12815;DHT22;6472;52.328;13.070;2024-02-16T01:05:05;6.50;99.90
12815;DHT22;6472;52.328;13.070;2024-02-16T01:07:33;6.50;99.90
12815;DHT22;6472;52.328;13.070;2024-02-16T01:10:01;6.40;99.90
12815;DHT22;6472;52.328;13.070;2024-02-16T01:12:32;6.30;99.90
12815;DHT22;6472;52.328;13.070;2024-02-16T01:15:00;6.30;99.90
12815;DHT22;6472;52.328;13.070;2024-02-16T01:17:29;6.30;99.90
12815;DHT22;6472;52.328;13.070;2024-02-16T01:19:59;6.40;99.90
12815;DHT22;6472;52.328;13.070;2024-02-16T01:22:28;6.40;99.90
12815;DHT22;6472;52.328;13.070;2024-02-16T01:24:57;6.50;99.90
12815;DHT22;6472;52.328;13.070;2024-02-16T01:27:25;6.40;99.90
12815;DHT22;6472;52.328;13.070;2024-02-16T01:29:56;6.30;99.90
12815;DHT22;6472;52.328;13.070;2024-02-16T01:32:24;6.30;99.90
12815;DHT22;6472;52.328;13.070;2024-02-16T01:34:52;6.30;99.90
12815;DHT22;6472;52.328;13.070;2024-02-16T01:37:20;6.30;99.90
12815;DHT22;6472;52.328;13.070;2024-02-16T01:39:48;6.40;99.90
12815;DHT22;6472;52.328;13.070;2024-02-16T01:42:16;6.30;99.90
12815;DHT22;6472;52.328;13.070;2024-02-16T01:44:45;6.30;99.90
12815;DHT22;6472;52.328;13.070;2024-02-16T01:47:15;6.30;99.90
12815;DHT22;6472;52.328;13.070;2024-02-16T01:49:44;6.30;99.90
12815;DHT22;6472;52.328;13.070;2024-02-16T01:52:12;6.30;99.90
12815;DHT22;6472;52.328;13.070;2024-02-16T01:54:40;6.30;99.90
12815;DHT22;6472;52.328;13.070;2024-02-16T01:57:09;6.40;99.90
12815;DHT22;6472;52.328;13.070;2024-02-16T01:59:39;6.40;99.90
12815;DHT22;6472;52.328;13.070;2024-02-16T02:02:08;6.40;99.90
12815;DHT22;6472;52.328;13.070;2024-02-16T02:04:38;6.40;99.90
12815;DHT22;6472;52.328;13.070;2024-02-16T02:07:11;6.40;99.90
12815;DHT22;6472;52.328;13.070;2024-02-16T02:09:40;6.50;99.90
12815;DHT22;6472;52.328;13.070;2024-02-16T02:12:09;6.50;99.90
12815;DHT22;6472;52.328;13.070;2024-02-16T02:14:37;6.50;99.90
12815;DHT22;6472;52.328;13.070;2024-02-16T02:17:06;6.50;99.90
12815;DHT22;6472;52.328;13.070;2024-02-16T02:19:34;6.70;99.90
12815;DHT22;6472;52.328;13.070;2024-02-16T02:22:04;6.70;99.90
12815;DHT22;6472;52.328;13.070;2024-02-16T02:24:34;6.70;99.90
12815;DHT22;6472;52.328;13.070;2024-02-16T02:27:02;6.70;99.90
12815;DHT22;6472;52.328;13.070;2024-02-16T02:29:30;6.70;99.90
12815;DHT22;6472;52.328;13.070;2024-02-16T02:31:59;6.90;99.90
12815;DHT22;6472;52.328;13.070;2024-02-16T02:34:27;7.10;99.90
12815;DHT22;6472;52.328;13.070;2024-02-16T02:36:55;7.30;99.90
12815;DHT22;6472;52.328;13.070;2024-02-16T02:39:24;7.40;99.90
12815;DHT22;6472;52.328;13.070;2024-02-16T02:41:53;7.40;99.90
12815;DHT22;6472;52.328;13.070;2024-02-16T02:44:21;7.30;99.90
12815;DHT22;6472;52.328;13.070;2024-02-16T02:46:49;7.30;99.90
12815;DHT22;6472;52.328;13.070;2024-02-16T02:49:18;7.40;99.90
12815;DHT22;6472;52.328;13.070;2024-02-16T02:51:47;7.40;99.90
12815;DHT22;6472;52.328;13.070;2024-02-16T02:54:15;7.50;99.90
12815;DHT22;6472;52.328;13.070;2024-02-16T02:56:43;7.50;99.90
12815;DHT22;6472;52.328;13.070;2024-02-16T02:59:13;7.50;99.90
12815;DHT22;6472;52.328;13.070;2024-02-16T03:01:41;7.60;99.90
12815;DHT22;6472;52.328;13.070;2024-02-16T03:04:09;7.60;99.90
12815;DHT22;6472;52.328;13.070;2024-02-16T03:06:38;7.60;99.90
12815;DHT22;6472;52.328;13.070;2024-02-16T03:09:06;7.40;99.90
12815;DHT22;6472;52.328;13.070;2024-02-16T03:11:34;7.30;99.90
12815;DHT22;6472;52.328;13.070;2024-02-16T03:14:03;7.30;99.90
12815;DHT22;6472;52.328;13.070;2024-02-16T03:16:34;7.20;99.90
12815;DHT22;6472;52.328;13.070;2024-02-16T03:19:05;7.20;99.90
12815;DHT22;6472;52.328;13.070;2024-02-16T03:21:35;7.20;99.90
12815;DHT22;6472;52.328;13.070;2024-02-16T03:24:04;7.30;99.90
12815;DHT22;6472;52.328;13.070;2024-02-16T03:26:32;7.20;99.90
12815;DHT22;6472;52.328;13.070;2024-02-16T03:29:01;7.10;99.90
12815;DHT22;6472;52.328;13.070;2024-02-16T03:31:29;7.20;99.90
12815;DHT22;6472;52.328;13.070;2024-02-16T03:34:00;7.20;99.90
12815;DHT22;6472;52.328;13.070;2024-02-16T03:36:28;7.20;99.90
12815;DHT22;6472;52.328;13.070;2024-02-16T03:38:57;7.10;99.90
12815;DHT22;6472;52.328;13.070;2024-02-16T03:41:25;7.10;99.90
12815;DHT22;6472;52.328;13.070;2024-02-16T03:43:54;7.10;99.90
12815;DHT22;6472;52.328;13.070;2024-02-16T03:46:24;7.10;99.90
12815;DHT22;6472;52.328;13.070;2024-02-16T03:48:52;7.10;99.90
12815;DHT22;6472;52.328;13.070;2024-02-16T03:51:22;7.10;99.90
12815;DHT22;6472;52.328;13.070;2024-02-16T03:53:50;7.10;99.90
12815;DHT22;6472;52.328;13.070;2024-02-16T03:56:19;7.20;99.90
12815;DHT22;6472;52.328;13.070;2024-02-16T03:58:48;7.10;99.90
12815;DHT22;6472;52.328;13.070;2024-02-16T04:01:16;7.10;99.90
12815;DHT22;6472;52.328;13.070;2024-02-16T04:03:44;7.10;99.90
12815;DHT22;6472;52.328;13.070;2024-02-16T04:06:12;7.10;99.90
12815;DHT22;6472;52.328;13.070;2024-02-16T04:08:42;7.20;99.90
12815;DHT22;6472;52.328;13.070;2024-02-16T04:11:11;7.20;99.90
12815;DHT22;6472;52.328;13.070;2024-02-16T04:13:39;7.20;99.90
12815;DHT22;6472;52.328;13.070;2024-02-16T04:16:07;7.10;99.90
12815;DHT22;6472;52.328;13.070;2024-02-16T04:18:36;7.10;99.90
12815;DHT22;6472;52.328;13.070;2024-02-16T04:21:04;7.10;99.90
12815;DHT22;6472;52.328;13.070;2024-02-16T04:23:33;7.10;99.90
12815;DHT22;6472;52.328;13.070;2024-02-16T04:26:03;7.10;99.90
12815;DHT22;6472;52.328;13.070;2024-02-16T04:28:33;7.00;99.90
12815;DHT22;6472;52.328;13.070;2024-02-16T04:31:02;7.10;99.90
12815;DHT22;6472;52.328;13.070;2024-02-16T04:33:30;7.00;99.90
12815;DHT22;6472;52.328;13.070;2024-02-16T04:35:58;7.00;99.90
12815;DHT22;6472;52.328;13.070;2024-02-16T04:38:26;7.00;99.90
12815;DHT22;6472;52.328;13.070;2024-02-16T04:40:54;6.90;99.90
12815;DHT22;6472;52.328;13.070;2024-02-16T04:43:24;6.90;99.90
12815;DHT22;6472;52.328;13.070;2024-02-16T04:45:52;6.90;99.90
12815;DHT22;6472;52.328;13.070;2024-02-16T04:48:21;6.80;99.90
12815;DHT22;6472;52.328;13.070;2024-02-16T04:50:49;6.70;99.90
12815;DHT22;6472;52.328;13.070;2024-02-16T04:53:18;6.70;99.90
12815;DHT22;6472;52.328;13.070;2024-02-16T04:55:46;6.60;99.90
12815;DHT22;6472;52.328;13.070;2024-02-16T04:58:14;6.50;99.90
12815;DHT22;6472;52.328;13.070;2024-02-16T05:00:44;6.50;99.90
12815;DHT22;6472;52.328;13.070;2024-02-16T05:03:14;6.50;99.90
12815;DHT22;6472;52.328;13.070;2024-02-16T05:05:42;6.50;99.90
12815;DHT22;6472;52.328;13.070;2024-02-16T05:08:10;6.40;99.90
12815;DHT22;6472;52.328;13.070;2024-02-16T05:10:39;6.40;99.90
12815;DHT22;6472;52.328;13.070;2024-02-16T05:13:07;6.40;99.90
12815;DHT22;6472;52.328;13.070;2024-02-16T05:15:35;6.20;99.90
12815;DHT22;6472;52.328;13.070;2024-02-16T05:18:05;6.20;99.90
12815;DHT22;6472;52.328;13.070;2024-02-16T05:20:33;6.20;99.90
12815;DHT22;6472;52.328;13.070;2024-02-16T05:23:02;6.20;99.90
12815;DHT22;6472;52.328;13.070;2024-02-16T05:25:30;6.30;99.90
12815;DHT22;6472;52.328;13.070;2024-02-16T05:27:58;6.30;99.90
12815;DHT22;6472;52.328;13.070;2024-02-16T05:30:28;6.30;99.90
12815;DHT22;6472;52.328;13.070;2024-02-16T05:32:56;6.20;99.90
12815;DHT22;6472;52.328;13.070;2024-02-16T05:35:27;6.20;99.90
12815;DHT22;6472;52.328;13.070;2024-02-16T05:37:57;6.40;99.90
12815;DHT22;6472;52.328;13.070;2024-02-16T05:40:28;6.50;99.90
12815;DHT22;6472;52.328;13.070;2024-02-16T05:43:30;6.60;99.90
12815;DHT22;6472;52.328;13.070;2024-02-16T05:46:06;6.60;99.90
12815;DHT22;6472;52.328;13.070;2024-02-16T05:48:47;6.70;99.90
12815;DHT22;6472;52.328;13.070;2024-02-16T05:51:40;6.70;99.90
12815;DHT22;6472;52.328;13.070;2024-02-16T05:54:09;6.80;99.90
12815;DHT22;6472;52.328;13.070;2024-02-16T05:56:39;7.10;99.90
12815;DHT22;6472;52.328;13.070;2024-02-16T05:59:10;7.10;99.90
12815;DHT22;6472;52.328;13.070;2024-02-16T06:01:53;7.10;99.90
12815;DHT22;6472;52.328;13.070;2024-02-16T06:04:21;7.00;99.90
12815;DHT22;6472;52.328;13.070;2024-02-16T06:06:51;7.00;99.90
12815;DHT22;6472;52.328;13.070;2024-02-16T06:09:20;7.00;99.90
12815;DHT22;6472;52.328;13.070;2024-02-16T06:19:45;7.10;99.90
12815;DHT22;6472;52.328;13.070;2024-02-16T06:22:14;7.00;99.90
12815;DHT22;6472;52.328;13.070;2024-02-16T06:24:44;7.00;99.90
12815;DHT22;6472;52.328;13.070;2024-02-16T06:27:12;7.20;99.90
12815;DHT22;6472;52.328;13.070;2024-02-16T06:29:40;7.20;99.90
12815;DHT22;6472;52.328;13.070;2024-02-16T06:34:42;7.20;99.90
12815;DHT22;6472;52.328;13.070;2024-02-16T06:37:14;7.10;99.90
12815;DHT22;6472;52.328;13.070;2024-02-16T06:39:43;7.20;99.90
12815;DHT22;6472;52.328;13.070;2024-02-16T06:42:11;7.30;99.90
12815;DHT22;6472;52.328;13.070;2024-02-16T06:44:40;7.50;99.90
12815;DHT22;6472;52.328;13.070;2024-02-16T06:47:08;7.50;99.90
12815;DHT22;6472;52.328;13.070;2024-02-16T06:49:36;7.50;99.90
12815;DHT22;6472;52.328;13.070;2024-02-16T06:52:05;7.50;99.90
12815;DHT22;6472;52.328;13.070;2024-02-16T06:54:35;7.50;99.90
12815;DHT22;6472;52.328;13.070;2024-02-16T06:57:04;7.50;99.90
12815;DHT22;6472;52.328;13.070;2024-02-16T06:59:34;7.50;99.90
12815;DHT22;6472;52.328;13.070;2024-02-16T07:02:03;7.40;99.90
12815;DHT22;6472;52.328;13.070;2024-02-16T07:04:31;7.40;99.90
12815;DHT22;6472;52.328;13.070;2024-02-16T07:07:00;7.30;99.90
12815;DHT22;6472;52.328;13.070;2024-02-16T07:09:29;7.40;99.90
12815;DHT22;6472;52.328;13.070;2024-02-16T07:11:59;7.40;99.90
12815;DHT22;6472;52.328;13.070;2024-02-16T07:14:27;7.40;99.90
12815;DHT22;6472;52.328;13.070;2024-02-16T07:16:55;7.40;99.90
12815;DHT22;6472;52.328;13.070;2024-02-16T07:19:24;7.30;99.90
12815;DHT22;6472;52.328;13.070;2024-02-16T07:21:53;7.50;99.90
12815;DHT22;6472;52.328;13.070;2024-02-16T07:24:21;7.70;99.90
12815;DHT22;6472;52.328;13.070;2024-02-16T07:26:49;7.80;99.90
12815;DHT22;6472;52.328;13.070;2024-02-16T07:29:19;7.80;99.90
12815;DHT22;6472;52.328;13.070;2024-02-16T07:31:47;8.20;99.90
12815;DHT22;6472;52.328;13.070;2024-02-16T07:34:18;8.30;99.90
12815;DHT22;6472;52.328;13.070;2024-02-16T07:36:46;8.50;99.90
12815;DHT22;6472;52.328;13.070;2024-02-16T07:39:15;8.70;99.90
12815;DHT22;6472;52.328;13.070;2024-02-16T07:41:43;9.00;99.90
12815;DHT22;6472;52.328;13.070;2024-02-16T07:44:11;9.20;99.90
12815;DHT22;6472;52.328;13.070;2024-02-16T07:46:42;9.40;99.90
12815;DHT22;6472;52.328;13.070;2024-02-16T07:49:13;9.70;99.90
12815;DHT22;6472;52.328;13.070;2024-02-16T07:51:41;9.80;99.90
12815;DHT22;6472;52.328;13.070;2024-02-16T07:54:10;10.00;99.90
12815;DHT22;6472;52.328;13.070;2024-02-16T07:56:38;10.00;99.90
12815;DHT22;6472;52.328;13.070;2024-02-16T07:59:06;10.10;99.90
12815;DHT22;6472;52.328;13.070;2024-02-16T08:01:35;10.30;99.90
12815;DHT22;6472;52.328;13.070;2024-02-16T08:04:04;10.30;99.90
12815;DHT22;6472;52.328;13.070;2024-02-16T08:06:32;10.40;99.90
12815;DHT22;6472;52.328;13.070;2024-02-16T08:09:01;10.50;99.90
12815;DHT22;6472;52.328;13.070;2024-02-16T08:11:29;10.60;99.90
12815;DHT22;6472;52.328;13.070;2024-02-16T08:13:59;10.60;99.90
12815;DHT22;6472;52.328;13.070;2024-02-16T08:16:27;10.70;99.90
12815;DHT22;6472;52.328;13.070;2024-02-16T08:18:55;10.60;99.90
12815;DHT22;6472;52.328;13.070;2024-02-16T08:21:25;10.60;99.90
12815;DHT22;6472;52.328;13.070;2024-02-16T08:23:54;10.70;99.90
12815;DHT22;6472;52.328;13.070;2024-02-16T08:26:22;10.70;99.90
12815;DHT22;6472;52.328;13.070;2024-02-16T08:28:50;10.70;99.90
12815;DHT22;6472;52.328;13.070;2024-02-16T08:31:18;10.80;99.90
12815;DHT22;6472;52.328;13.070;2024-02-16T08:33:50;10.80;99.90
12815;DHT22;6472;52.328;13.070;2024-02-16T08:36:18;10.90;99.90
12815;DHT22;6472;52.328;13.070;2024-02-16T08:38:49;10.80;99.90
12815;DHT22;6472;52.328;13.070;2024-02-16T08:41:18;11.00;99.90
12815;DHT22;6472;52.328;13.070;2024-02-16T08:43:47;11.10;99.90
12815;DHT22;6472;52.328;13.070;2024-02-16T08:46:15;11.20;99.90
12815;DHT22;6472;52.328;13.070;2024-02-16T08:48:45;11.20;99.90
12815;DHT22;6472;52.328;13.070;2024-02-16T08:51:14;11.20;99.90
12815;DHT22;6472;52.328;13.070;2024-02-16T08:53:42;11.20;99.90
12815;DHT22;6472;52.328;13.070;2024-02-16T08:56:11;11.30;99.90
12815;DHT22;6472;52.328;13.070;2024-02-16T08:58:40;11.50;99.90
12815;DHT22;6472;52.328;13.070;2024-02-16T09:01:08;11.50;99.90
12815;DHT22;6472;52.328;13.070;2024-02-16T09:03:36;11.60;99.90
12815;DHT22;6472;52.328;13.070;2024-02-16T09:06:07;11.60;99.90
12815;DHT22;6472;52.328;13.070;2024-02-16T09:08:35;11.80;99.90
12815;DHT22;6472;52.328;13.070;2024-02-16T09:11:04;11.90;99.90
12815;DHT22;6472;52.328;13.070;2024-02-16T09:13:35;11.90;99.90
12815;DHT22;6472;52.328;13.070;2024-02-16T09:16:07;11.80;99.90
12815;DHT22;6472;52.328;13.070;2024-02-16T09:18:35;11.80;99.90
12815;DHT22;6472;52.328;13.070;2024-02-16T09:21:05;11.80;99.90
12815;DHT22;6472;52.328;13.070;2024-02-16T09:23:34;11.90;99.90
12815;DHT22;6472;52.328;13.070;2024-02-16T09:26:02;11.80;99.90
12815;DHT22;6472;52.328;13.070;2024-02-16T09:28:31;11.90;99.90
12815;DHT22;6472;52.328;13.070;2024-02-16T09:31:00;11.80;99.90
12815;DHT22;6472;52.328;13.070;2024-02-16T09:33:28;11.90;99.90
12815;DHT22;6472;52.328;13.070;2024-02-16T09:35:57;12.10;99.90
12815;DHT22;6472;52.328;13.070;2024-02-16T09:38:25;12.20;99.90
12815;DHT22;6472;52.328;13.070;2024-02-16T09:40:53;12.30;99.90
12815;DHT22;6472;52.328;13.070;2024-02-16T09:43:24;12.40;99.90
12815;DHT22;6472;52.328;13.070;2024-02-16T09:45:55;12.40;99.90
12815;DHT22;6472;52.328;13.070;2024-02-16T09:48:26;12.40;99.90
12815;DHT22;6472;52.328;13.070;2024-02-16T09:50:56;12.40;99.90
12815;DHT22;6472;52.328;13.070;2024-02-16T09:53:29;12.40;99.90
12815;DHT22;6472;52.328;13.070;2024-02-16T09:55:57;12.50;99.90
12815;DHT22;6472;52.328;13.070;2024-02-16T09:58:25;12.50;99.90
12815;DHT22;6472;52.328;13.070;2024-02-16T10:00:54;12.50;99.90
12815;DHT22;6472;52.328;13.070;2024-02-16T10:03:27;12.60;99.90
12815;DHT22;6472;52.328;13.070;2024-02-16T10:06:05;12.70;99.90
12815;DHT22;6472;52.328;13.070;2024-02-16T10:08:46;12.70;99.90
12815;DHT22;6472;52.328;13.070;2024-02-16T10:11:15;12.60;99.90
12815;DHT22;6472;52.328;13.070;2024-02-16T10:13:59;12.60;99.90
12815;DHT22;6472;52.328;13.070;2024-02-16T10:16:27;12.60;99.90
12815;DHT22;6472;52.328;13.070;2024-02-16T10:19:04;12.70;99.90
12815;DHT22;6472;52.328;13.070;2024-02-16T10:21:33;12.60;99.90
12815;DHT22;6472;52.328;13.070;2024-02-16T10:24:04;12.60;99.90
12815;DHT22;6472;52.328;13.070;2024-02-16T10:26:35;12.70;99.90
12815;DHT22;6472;52.328;13.070;2024-02-16T10:29:05;12.80;99.90
12815;DHT22;6472;52.328;13.070;2024-02-16T10:31:34;13.00;99.90
12815;DHT22;6472;52.328;13.070;2024-02-16T10:34:05;13.10;99.90
12815;DHT22;6472;52.328;13.070;2024-02-16T10:36:35;13.10;99.90
12815;DHT22;6472;52.328;13.070;2024-02-16T10:39:05;13.20;99.90
12815;DHT22;6472;52.328;13.070;2024-02-16T10:41:36;13.20;99.90
12815;DHT22;6472;52.328;13.070;2024-02-16T10:44:05;13.10;99.90
12815;DHT22;6472;52.328;13.070;2024-02-16T10:46:34;13.20;99.90
12815;DHT22;6472;52.328;13.070;2024-02-16T10:49:04;13.30;99.90
12815;DHT22;6472;52.328;13.070;2024-02-16T10:51:39;13.40;99.90
12815;DHT22;6472;52.328;13.070;2024-02-16T10:54:09;13.50;99.90
12815;DHT22;6472;52.328;13.070;2024-02-16T10:56:39;13.70;99.90
12815;DHT22;6472;52.328;13.070;2024-02-16T10:59:09;13.90;99.90
12815;DHT22;6472;52.328;13.070;2024-02-16T11:01:37;14.10;99.90
12815;DHT22;6472;52.328;13.070;2024-02-16T11:04:08;14.10;99.90
12815;DHT22;6472;52.328;13.070;2024-02-16T11:06:46;14.40;99.90
12815;DHT22;6472;52.328;13.070;2024-02-16T11:09:28;14.50;99.90
12815;DHT22;6472;52.328;13.070;2024-02-16T11:12:00;14.50;99.90
12815;DHT22;6472;52.328;13.070;2024-02-16T11:14:35;14.60;99.90
12815;DHT22;6472;52.328;13.070;2024-02-16T11:17:08;15.50;99.90
12815;DHT22;6472;52.328;13.070;2024-02-16T11:19:40;15.00;99.90
12815;DHT22;6472;52.328;13.070;2024-02-16T11:22:09;15.10;99.90
12815;DHT22;6472;52.328;13.070;2024-02-16T11:24:43;15.00;99.90
12815;DHT22;6472;52.328;13.070;2024-02-16T11:27:12;15.30;99.90
12815;DHT22;6472;52.328;13.070;2024-02-16T11:29:42;15.10;99.90
12815;DHT22;6472;52.328;13.070;2024-02-16T11:32:11;15.10;99.90
12815;DHT22;6472;52.328;13.070;2024-02-16T11:34:41;15.10;99.90
12815;DHT22;6472;52.328;13.070;2024-02-16T11:37:13;15.10;99.90
12815;DHT22;6472;52.328;13.070;2024-02-16T11:39:41;15.10;99.90
12815;DHT22;6472;52.328;13.070;2024-02-16T11:42:13;15.10;99.90
12815;DHT22;6472;52.328;13.070;2024-02-16T11:44:51;15.10;99.90
12815;DHT22;6472;52.328;13.070;2024-02-16T11:47:21;15.10;99.90
12815;DHT22;6472;52.328;13.070;2024-02-16T11:50:03;15.10;99.90
12815;DHT22;6472;52.328;13.070;2024-02-16T11:52:34;15.00;99.90
12815;DHT22;6472;52.328;13.070;2024-02-16T11:55:08;15.10;99.90
12815;DHT22;6472;52.328;13.070;2024-02-16T11:57:37;15.30;99.90
12815;DHT22;6472;52.328;13.070;2024-02-16T12:00:07;15.50;99.90
12815;DHT22;6472;52.328;13.070;2024-02-16T12:02:38;15.60;99.90
12815;DHT22;6472;52.328;13.070;2024-02-16T12:05:08;15.80;99.90
12815;DHT22;6472;52.328;13.070;2024-02-16T12:07:37;15.80;99.90
12815;DHT22;6472;52.328;13.070;2024-02-16T12:10:09;15.70;99.90
12815;DHT22;6472;52.328;13.070;2024-02-16T12:12:38;15.80;99.90
12815;DHT22;6472;52.328;13.070;2024-02-16T12:15:10;16.00;99.90
12815;DHT22;6472;52.328;13.070;2024-02-16T12:17:40;16.00;99.90
12815;DHT22;6472;52.328;13.070;2024-02-16T12:20:12;16.00;99.90
12815;DHT22;6472;52.328;13.070;2024-02-16T12:22:42;15.90;99.90
12815;DHT22;6472;52.328;13.070;2024-02-16T12:25:10;15.90;99.90
12815;DHT22;6472;52.328;13.070;2024-02-16T12:27:39;16.00;99.90
12815;DHT22;6472;52.328;13.070;2024-02-16T12:30:08;16.20;99.90
12815;DHT22;6472;52.328;13.070;2024-02-16T12:36:26;16.00;99.90
12815;DHT22;6472;52.328;13.070;2024-02-16T12:38:54;16.00;99.90
12815;DHT22;6472;52.328;13.070;2024-02-16T12:44:53;15.80;99.90
12815;DHT22;6472;52.328;13.070;2024-02-16T12:47:22;15.80;99.90
12815;DHT22;6472;52.328;13.070;2024-02-16T12:49:49;15.60;99.90
12815;DHT22;6472;52.328;13.070;2024-02-16T12:52:21;15.60;99.90
12815;DHT22;6472;52.328;13.070;2024-02-16T12:54:50;15.60;99.90
12815;DHT22;6472;52.328;13.070;2024-02-16T12:57:19;15.60;99.90
12815;DHT22;6472;52.328;13.070;2024-02-16T12:59:47;15.50;99.90
12815;DHT22;6472;52.328;13.070;2024-02-16T13:02:15;15.50;99.90
12815;DHT22;6472;52.328;13.070;2024-02-16T13:04:44;15.50;99.90
12815;DHT22;6472;52.328;13.070;2024-02-16T13:07:12;15.60;99.90
12815;DHT22;6472;52.328;13.070;2024-02-16T13:09:42;15.60;99.90
12815;DHT22;6472;52.328;13.070;2024-02-16T13:12:10;15.60;99.90
12815;DHT22;6472;52.328;13.070;2024-02-16T13:14:38;15.60;99.90
12815;DHT22;6472;52.328;13.070;2024-02-16T13:17:06;15.60;99.90
12815;DHT22;6472;52.328;13.070;2024-02-16T13:19:34;15.50;99.90
12815;DHT22;6472;52.328;13.070;2024-02-16T13:22:03;15.50;99.90
12815;DHT22;6472;52.328;13.070;2024-02-16T13:24:31;15.40;99.90
12815;DHT22;6472;52.328;13.070;2024-02-16T13:27:02;15.40;99.90
12815;DHT22;6472;52.328;13.070;2024-02-16T13:29:32;15.40;99.90
12815;DHT22;6472;52.328;13.070;2024-02-16T13:32:04;15.30;99.90
12815;DHT22;6472;52.328;13.070;2024-02-16T13:34:32;15.30;99.90
12815;DHT22;6472;52.328;13.070;2024-02-16T13:37:00;15.40;99.90
12815;DHT22;6472;52.328;13.070;2024-02-16T13:39:28;15.40;99.90
12815;DHT22;6472;52.328;13.070;2024-02-16T13:41:57;15.50;99.90
12815;DHT22;6472;52.328;13.070;2024-02-16T13:44:26;15.50;99.90
12815;DHT22;6472;52.328;13.070;2024-02-16T13:46:54;15.50;99.90
12815;DHT22;6472;52.328;13.070;2024-02-16T13:49:24;15.60;99.90
12815;DHT22;6472;52.328;13.070;2024-02-16T13:51:52;15.60;99.90
12815;DHT22;6472;52.328;13.070;2024-02-16T13:54:20;15.60;99.90
12815;DHT22;6472;52.328;13.070;2024-02-16T13:56:50;15.50;99.90
12815;DHT22;6472;52.328;13.070;2024-02-16T13:59:18;15.50;99.90
12815;DHT22;6472;52.328;13.070;2024-02-16T14:01:48;15.50;99.90
12815;DHT22;6472;52.328;13.070;2024-02-16T14:04:16;15.60;99.90
12815;DHT22;6472;52.328;13.070;2024-02-16T14:06:45;15.60;99.90
12815;DHT22;6472;52.328;13.070;2024-02-16T14:09:13;15.70;99.90
12815;DHT22;6472;52.328;13.070;2024-02-16T14:11:53;15.60;99.90
12815;DHT22;6472;52.328;13.070;2024-02-16T14:14:23;15.60;99.90
12815;DHT22;6472;52.328;13.070;2024-02-16T14:17:04;15.70;99.90
12815;DHT22;6472;52.328;13.070;2024-02-16T14:19:33;15.60;99.90
12815;DHT22;6472;52.328;13.070;2024-02-16T14:22:04;15.60;99.90
12815;DHT22;6472;52.328;13.070;2024-02-16T14:24:33;15.50;99.90
12815;DHT22;6472;52.328;13.070;2024-02-16T14:27:02;15.50;99.90
12815;DHT22;6472;52.328;13.070;2024-02-16T14:29:30;15.60;99.90
12815;DHT22;6472;52.328;13.070;2024-02-16T14:31:59;15.60;99.90
12815;DHT22;6472;52.328;13.070;2024-02-16T14:34:28;15.50;99.90
12815;DHT22;6472;52.328;13.070;2024-02-16T14:36:58;15.40;99.90
12815;DHT22;6472;52.328;13.070;2024-02-16T14:39:26;15.40;99.90
12815;DHT22;6472;52.328;13.070;2024-02-16T14:41:54;15.20;99.90
12815;DHT22;6472;52.328;13.070;2024-02-16T14:44:22;15.20;99.90
12815;DHT22;6472;52.328;13.070;2024-02-16T14:46:50;15.10;99.90
12815;DHT22;6472;52.328;13.070;2024-02-16T14:49:19;15.10;99.90
12815;DHT22;6472;52.328;13.070;2024-02-16T14:51:50;15.10;99.90
12815;DHT22;6472;52.328;13.070;2024-02-16T14:54:19;15.00;99.90
12815;DHT22;6472;52.328;13.070;2024-02-16T14:56:47;14.90;99.90
12815;DHT22;6472;52.328;13.070;2024-02-16T14:59:20;14.90;99.90
12815;DHT22;6472;52.328;13.070;2024-02-16T15:01:48;14.90;99.90
12815;DHT22;6472;52.328;13.070;2024-02-16T15:04:18;14.90;99.90
12815;DHT22;6472;52.328;13.070;2024-02-16T15:06:47;14.80;99.90
12815;DHT22;6472;52.328;13.070;2024-02-16T15:09:16;14.70;99.90
12815;DHT22;6472;52.328;13.070;2024-02-16T15:11:44;14.70;99.90
12815;DHT22;6472;52.328;13.070;2024-02-16T15:14:13;14.70;99.90
12815;DHT22;6472;52.328;13.070;2024-02-16T15:16:46;14.70;99.90
12815;DHT22;6472;52.328;13.070;2024-02-16T15:19:14;14.60;99.90
12815;DHT22;6472;52.328;13.070;2024-02-16T15:21:42;14.50;99.90
12815;DHT22;6472;52.328;13.070;2024-02-16T15:24:10;14.60;99.90
12815;DHT22;6472;52.328;13.070;2024-02-16T15:26:40;14.50;99.90
12815;DHT22;6472;52.328;13.070;2024-02-16T15:29:08;14.50;99.90
12815;DHT22;6472;52.328;13.070;2024-02-16T15:31:36;14.50;99.90
12815;DHT22;6472;52.328;13.070;2024-02-16T15:34:04;14.50;99.90
12815;DHT22;6472;52.328;13.070;2024-02-16T15:36:33;14.40;99.90
12815;DHT22;6472;52.328;13.070;2024-02-16T15:39:01;14.30;99.90
12815;DHT22;6472;52.328;13.070;2024-02-16T15:41:29;14.30;99.90
12815;DHT22;6472;52.328;13.070;2024-02-16T15:43:59;14.30;99.90
12815;DHT22;6472;52.328;13.070;2024-02-16T15:46:27;14.30;99.90
12815;DHT22;6472;52.328;13.070;2024-02-16T15:48:55;14.30;99.90
12815;DHT22;6472;52.328;13.070;2024-02-16T15:51:23;14.30;99.90
12815;DHT22;6472;52.328;13.070;2024-02-16T15:53:52;14.20;99.90
12815;DHT22;6472;52.328;13.070;2024-02-16T15:56:20;14.10;99.90
12815;DHT22;6472;52.328;13.070;2024-02-16T15:58:48;14.00;99.90
12815;DHT22;6472;52.328;13.070;2024-02-16T16:01:19;14.00;99.90
12815;DHT22;6472;52.328;13.070;2024-02-16T16:03:47;13.90;99.90
12815;DHT22;6472;52.328;13.070;2024-02-16T16:06:17;13.90;99.90
12815;DHT22;6472;52.328;13.070;2024-02-16T16:08:45;13.80;99.90